createdAt,value
2019-01-16T00:05:04.084Z,64.23
2019-01-16T00:10:53.944Z,63.54
2019-01-16T00:16:31.894Z,63.45
2019-01-16T00:22:22.814Z,64.16
2019-01-16T00:28:02.299Z,62.25
2019-01-16T00:33:37.795Z,62.11
2019-01-16T00:39:27.800Z,61.54
2019-01-16T00:44:56.781Z,60.38
2019-01-16T00:50:31.461Z,59.73
2019-01-16T00:56:04.669Z,59.70
2019-01-16T01:01:42.806Z,59.11
2019-01-16T01:07:24.386Z,60.26
2019-01-16T01:12:55.960Z,59.68
2019-01-16T01:18:32.466Z,60.98
2019-01-16T01:24:07.609Z,61.51
2019-01-16T01:29:45.818Z,61.09
2019-01-16T01:35:15.651Z,62.01
2019-01-16T01:40:47.124Z,61.74
2019-01-16T01:46:19.795Z,62.05
2019-01-16T01:52:04.359Z,62.01
2019-01-16T01:57:35.069Z,61.73
2019-01-16T02:03:15.513Z,62.86
2019-01-16T02:08:49.315Z,62.57
2019-01-16T02:14:21.678Z,63.36
2019-01-16T02:20:00.326Z,62.57
2019-01-16T02:25:37.476Z,62.69
2019-01-16T02:31:08.536Z,62.88
2019-01-16T02:36:37.684Z,62.99
2019-01-16T02:42:15.404Z,62.63
2019-01-16T02:47:49.138Z,62.33
2019-01-16T02:53:22.311Z,62.69
2019-01-16T02:58:48.971Z,62.93
2019-01-16T03:04:36.186Z,62.60
2019-01-16T03:10:15.722Z,63.14
2019-01-16T03:15:47.343Z,62.62
2019-01-16T03:21:27.653Z,64.46
2019-01-16T03:27:09.185Z,64.72
2019-01-16T03:32:43.243Z,63.57
2019-01-16T03:38:26.975Z,64.35
2019-01-16T03:43:56.067Z,64.62
2019-01-16T03:49:29.459Z,63.99
2019-01-16T03:55:02.237Z,63.86
2019-01-16T04:00:36.269Z,64.62
2019-01-16T04:06:04.538Z,66.02
2019-01-16T04:11:37.448Z,66.04
2019-01-16T04:17:17.677Z,65.60
2019-01-16T04:22:54.906Z,64.49
2019-01-16T04:28:44.819Z,64.07
2019-01-16T04:34:24.250Z,63.90
2019-01-16T04:39:55.962Z,63.93
2019-01-16T04:45:28.236Z,64.12
2019-01-16T04:51:01.157Z,64.02
2019-01-16T04:56:32.182Z,63.93
2019-01-16T05:02:11.397Z,63.99
2019-01-16T05:07:41.547Z,64.07
2019-01-16T05:13:20.882Z,63.91
2019-01-16T05:18:52.915Z,63.64
2019-01-16T05:24:37.799Z,63.65
2019-01-16T05:30:23.486Z,63.92
2019-01-16T05:36:10.032Z,64.86
2019-01-16T05:41:59.812Z,64.99
2019-01-16T05:47:29.674Z,65.58
2019-01-16T05:53:04.651Z,66.38
2019-01-16T05:58:38.533Z,66.72
2019-01-16T06:04:12.360Z,65.96
2019-01-16T06:09:47.545Z,66.02
2019-01-16T06:15:34.094Z,65.56
2019-01-16T06:21:09.065Z,73.97
2019-01-16T06:32:33.805Z,64.50
2019-01-16T06:38:06.300Z,64.53
2019-01-16T06:43:50.315Z,64.08
2019-01-16T06:49:23.912Z,62.84
2019-01-16T06:54:54.562Z,62.71
2019-01-16T07:00:25.679Z,61.49
2019-01-16T07:06:06.903Z,59.87
2019-01-16T07:11:40.636Z,60.37
2019-01-16T07:17:08.025Z,60.54
2019-01-16T07:22:46.078Z,60.54
2019-01-16T07:28:24.598Z,58.32
2019-01-16T07:34:14.087Z,59.00
2019-01-16T07:39:46.220Z,58.48
2019-01-16T07:45:16.810Z,57.97
2019-01-16T07:50:59.796Z,56.58
2019-01-16T07:56:33.674Z,56.29
2019-01-16T08:02:09.265Z,57.00
2019-01-16T08:07:42.013Z,56.37
2019-01-16T08:13:20.863Z,56.97
2019-01-16T08:18:42.608Z,56.83
2019-01-16T08:24:12.228Z,57.21
2019-01-16T08:29:48.913Z,56.76
2019-01-16T08:35:40.184Z,57.63
2019-01-16T08:41:18.130Z,56.15
2019-01-16T08:46:54.976Z,56.52
2019-01-16T08:52:39.308Z,56.95
2019-01-16T08:58:31.019Z,55.17
2019-01-16T09:04:16.102Z,54.66
2019-01-16T09:09:52.927Z,54.65
2019-01-16T09:15:34.995Z,55.17
2019-01-16T09:21:09.278Z,53.93
2019-01-16T09:26:54.292Z,53.13
2019-01-16T09:32:33.540Z,51.83
2019-01-16T09:38:07.474Z,51.33
2019-01-16T09:43:42.896Z,51.37
2019-01-16T09:49:20.634Z,50.26
2019-01-16T09:54:54.108Z,50.27
2019-01-16T10:00:38.732Z,49.21
2019-01-16T10:06:04.113Z,49.05
2019-01-16T10:11:55.662Z,47.99
2019-01-16T10:17:33.786Z,48.61
2019-01-16T10:23:02.355Z,48.60
2019-01-16T10:28:47.453Z,48.64
2019-01-16T10:34:15.272Z,48.34
2019-01-16T10:39:46.537Z,47.25
2019-01-16T10:45:21.693Z,48.28
2019-01-16T10:51:08.185Z,49.34
2019-01-16T10:56:42.481Z,50.00
2019-01-16T11:02:18.151Z,50.61
2019-01-16T11:07:47.989Z,50.50
2019-01-16T11:13:16.506Z,50.64
2019-01-16T11:18:58.588Z,50.00
2019-01-16T11:24:21.995Z,49.21
2019-01-16T11:29:35.752Z,49.04
2019-01-16T11:35:11.879Z,48.20
2019-01-16T11:40:52.444Z,48.75
2019-01-16T11:46:25.911Z,48.79
2019-01-16T11:52:05.468Z,48.86
2019-01-16T11:57:33.283Z,49.04
2019-01-16T12:03:15.148Z,49.23
2019-01-16T12:08:59.975Z,48.51
2019-01-16T12:14:28.308Z,48.38
2019-01-16T12:20:02.670Z,48.41
2019-01-16T12:25:31.326Z,48.31
2019-01-16T12:31:00.395Z,49.65
2019-01-16T12:36:28.509Z,49.83
2019-01-16T12:42:01.566Z,49.99
2019-01-16T12:47:36.288Z,49.95
2019-01-16T12:53:02.648Z,50.50
2019-01-16T12:58:38.903Z,50.67
2019-01-16T13:04:20.761Z,50.63
2019-01-16T13:09:50.989Z,50.46
2019-01-16T13:15:20.494Z,51.17
2019-01-16T13:20:57.669Z,50.27
2019-01-16T13:26:33.548Z,50.62
2019-01-16T13:32:06.119Z,50.74
2019-01-16T13:37:51.386Z,50.79
2019-01-16T13:43:30.414Z,50.85
2019-01-16T13:49:16.147Z,50.28
2019-01-16T13:55:00.223Z,50.43
2019-01-16T14:00:55.804Z,50.62
2019-01-16T14:06:40.194Z,50.67
2019-01-16T14:12:24.088Z,50.90
2019-01-16T14:17:52.774Z,50.45
2019-01-16T14:23:40.063Z,48.92
2019-01-16T14:29:11.757Z,49.34
2019-01-16T14:34:36.703Z,51.23
2019-01-16T14:40:07.055Z,52.41
2019-01-16T14:45:39.397Z,52.87
2019-01-16T14:51:06.699Z,52.89
2019-01-16T14:56:43.884Z,53.32
2019-01-16T15:02:14.757Z,53.40
2019-01-16T15:07:59.264Z,53.57
2019-01-16T15:13:25.995Z,53.82
2019-01-16T15:18:57.598Z,53.71
2019-01-16T15:24:28.615Z,54.20
2019-01-16T15:29:59.330Z,54.34
2019-01-16T15:35:34.938Z,54.39
2019-01-16T15:41:05.899Z,54.60
2019-01-16T15:46:29.792Z,55.90
2019-01-16T15:52:03.808Z,55.96
2019-01-16T15:57:44.614Z,55.79
2019-01-16T16:03:26.843Z,56.12
2019-01-16T16:09:01.462Z,56.68
2019-01-16T16:14:52.439Z,57.42
2019-01-16T16:20:22.914Z,56.99
2019-01-16T16:26:01.781Z,56.40
2019-01-16T16:31:34.085Z,56.90
2019-01-16T16:37:10.389Z,56.70
2019-01-16T16:42:45.194Z,58.39
2019-01-16T16:48:23.075Z,59.28
2019-01-16T16:54:08.639Z,59.63
2019-01-16T16:59:54.077Z,59.95
2019-01-16T17:11:52.560Z,59.94
2019-01-16T17:17:28.848Z,59.66
2019-01-16T17:23:16.928Z,60.41
2019-01-16T17:28:45.374Z,60.70
2019-01-16T17:34:17.081Z,60.54
2019-01-16T17:39:57.620Z,60.16
2019-01-16T17:45:24.116Z,60.85
2019-01-16T17:50:57.051Z,60.18
2019-01-16T17:56:38.324Z,60.79
2019-01-16T18:02:24.445Z,59.85
2019-01-16T18:07:53.125Z,60.30
2019-01-16T18:13:38.932Z,60.06
2019-01-16T18:19:11.971Z,60.26
2019-01-16T18:24:44.843Z,59.44
2019-01-16T18:36:44.450Z,60.04
2019-01-16T18:42:43.174Z,60.85
2019-01-16T18:48:25.961Z,60.71
2019-01-16T18:54:05.393Z,60.00
2019-01-16T18:59:47.625Z,59.57
2019-01-16T19:11:43.513Z,60.12
2019-01-16T19:17:27.270Z,59.24
2019-01-16T20:11:59.766Z,61.24
2019-01-16T20:17:43.741Z,61.29
2019-01-16T20:23:13.838Z,61.27
2019-01-16T20:29:03.699Z,61.58
2019-01-16T20:34:52.923Z,62.10
2019-01-16T20:40:37.732Z,62.36
2019-01-16T20:46:12.797Z,63.00
2019-01-16T20:52:03.291Z,63.12
2019-01-16T20:58:10.642Z,63.10
2019-01-16T21:10:00.202Z,62.69
2019-01-16T21:15:57.131Z,63.08
2019-01-16T21:21:36.640Z,63.16
2019-01-16T21:27:16.414Z,63.37
2019-01-16T21:33:10.537Z,63.70
2019-01-16T21:38:39.531Z,63.32
2019-01-16T21:44:38.902Z,63.25
2019-01-16T21:50:15.958Z,63.60
2019-01-16T21:56:10.724Z,63.47
2019-01-16T22:01:47.496Z,64.07
2019-01-16T22:07:35.644Z,63.06
2019-01-16T22:13:10.331Z,63.21
2019-01-16T22:19:05.657Z,62.60
2019-01-16T22:29:47.793Z,63.08
2019-01-16T22:35:54.540Z,61.24
2019-01-16T22:41:39.988Z,61.80
2019-01-16T22:47:34.684Z,62.49
2019-01-16T22:53:05.869Z,62.89
2019-01-16T22:58:42.874Z,63.90
2019-01-16T23:04:30.588Z,63.97
2019-01-16T23:10:13.465Z,63.38
2019-01-16T23:15:51.631Z,63.32
2019-01-16T23:21:38.212Z,64.04
2019-01-16T23:27:12.147Z,64.40
2019-01-16T23:32:49.465Z,64.10
2019-01-16T23:38:43.564Z,63.84
2019-01-16T23:44:28.923Z,65.26
2019-01-16T23:50:00.473Z,65.97
2019-01-16T23:55:35.699Z,65.59
